createdAt,value
2023-09-17T00:00:35.375Z,100293.72
2023-09-17T00:03:22.829Z,100280.13
2023-09-17T00:05:55.498Z,100281.59
2023-09-17T00:08:28.181Z,100290.97
2023-09-17T00:10:56.171Z,100289.94
2023-09-17T00:13:23.943Z,100278.25
2023-09-17T00:16:00.743Z,100279.34
2023-09-17T00:18:33.368Z,100276.84
2023-09-17T00:21:01.252Z,100276.78
2023-09-17T00:23:33.322Z,100273.25
2023-09-17T00:26:05.978Z,100277.38
2023-09-17T00:28:33.302Z,100282.16
2023-09-17T00:31:26.552Z,100275.72
2023-09-17T00:33:54.080Z,100276.78
2023-09-17T00:36:30.970Z,100276.56
2023-09-17T00:39:02.584Z,100273.66
2023-09-17T00:41:34.917Z,100272.59
2023-09-17T00:44:02.378Z,100282.38
2023-09-17T00:46:32.957Z,100278.16
2023-09-17T00:49:05.447Z,100270.25
2023-09-17T00:51:33.276Z,100262.34
2023-09-17T00:54:00.795Z,100267.59
2023-09-17T00:56:33.241Z,100267.97
2023-09-17T00:59:00.991Z,100258.56
2023-09-17T01:01:30.747Z,100267.88
2023-09-17T01:04:00.866Z,100258.03
2023-09-17T01:06:29.288Z,100257.69
2023-09-17T01:08:57.510Z,100257.69
2023-09-17T01:11:26.471Z,100259.94
2023-09-17T01:13:54.678Z,100254.94
2023-09-17T01:16:27.172Z,100256.16
2023-09-17T01:19:12.188Z,100259.63
2023-09-17T01:21:57.403Z,100261.09
2023-09-17T01:24:29.691Z,100256.34
2023-09-17T01:27:03.521Z,100249.97
2023-09-17T01:29:35.997Z,100247.69
2023-09-17T01:32:04.085Z,100256.59
2023-09-17T01:34:32.239Z,100253.06
2023-09-17T01:37:03.840Z,100253.91
2023-09-17T01:39:42.361Z,100262.69
2023-09-17T01:42:16.222Z,100253.44
2023-09-17T01:44:46.124Z,100257.03
2023-09-17T01:47:14.760Z,100256.72
2023-09-17T01:49:43.176Z,100249.22
2023-09-17T01:52:12.339Z,100255.88
2023-09-17T01:54:40.039Z,100254.00
2023-09-17T01:57:07.692Z,100241.84
2023-09-17T01:59:36.606Z,100242.13
2023-09-17T02:02:04.716Z,100243.94
2023-09-17T02:04:32.232Z,100237.53
2023-09-17T02:07:00.208Z,100242.53
2023-09-17T02:09:27.634Z,100240.75
2023-09-17T02:11:55.464Z,100232.34
2023-09-17T02:14:22.812Z,100232.56
2023-09-17T02:16:55.967Z,100231.50
2023-09-17T02:19:23.504Z,100229.00
2023-09-17T02:21:51.369Z,100227.13
2023-09-17T02:24:18.979Z,100233.84
2023-09-17T02:26:46.817Z,100228.38
2023-09-17T02:29:14.407Z,100229.00
2023-09-17T02:31:42.153Z,100223.22
2023-09-17T02:34:11.000Z,100224.31
2023-09-17T02:36:38.900Z,100220.06
2023-09-17T02:39:10.877Z,100214.25
2023-09-17T02:41:38.710Z,100216.16
2023-09-17T02:44:06.266Z,100221.41
2023-09-17T02:46:36.445Z,100219.91
2023-09-17T02:49:03.979Z,100220.31
2023-09-17T02:51:37.091Z,100214.69
2023-09-17T02:54:10.451Z,100220.72
2023-09-17T02:56:39.700Z,100217.09
2023-09-17T02:59:11.645Z,100216.47
2023-09-17T03:01:44.027Z,100210.22
2023-09-17T03:07:12.613Z,100219.84
2023-09-17T03:09:49.400Z,100218.31
2023-09-17T03:12:17.281Z,100218.13
2023-09-17T03:14:44.691Z,100219.03
2023-09-17T03:17:12.561Z,100217.34
2023-09-17T03:19:40.065Z,100221.38
2023-09-17T03:22:24.545Z,100227.31
2023-09-17T03:25:03.224Z,100228.25
2023-09-17T03:27:37.494Z,100233.16
2023-09-17T03:30:05.856Z,100223.94
2023-09-17T03:33:01.923Z,100221.63
2023-09-17T03:35:32.190Z,100223.50
2023-09-17T03:38:10.597Z,100222.84
2023-09-17T03:40:42.491Z,100214.13
2023-09-17T03:43:10.610Z,100217.22
2023-09-17T03:45:38.217Z,100209.41
2023-09-17T03:48:07.092Z,100207.34
2023-09-17T03:50:35.314Z,100210.31
2023-09-17T03:53:04.122Z,100211.31
2023-09-17T03:55:37.257Z,100207.59
2023-09-17T03:58:05.406Z,100202.97
2023-09-17T04:00:32.900Z,100196.56
2023-09-17T04:03:00.739Z,100194.13
2023-09-17T04:05:28.196Z,100206.13
2023-09-17T04:07:56.083Z,100206.34
2023-09-17T04:10:23.602Z,100206.03
2023-09-17T04:12:53.013Z,100202.78
2023-09-17T04:15:20.497Z,100201.44
2023-09-17T04:17:49.787Z,100211.41
2023-09-17T04:20:17.705Z,100213.09
2023-09-17T04:22:46.268Z,100215.50
2023-09-17T04:25:14.449Z,100222.38
2023-09-17T04:27:43.231Z,100218.97
2023-09-17T04:30:17.193Z,100217.72
2023-09-17T04:32:46.859Z,100221.22
2023-09-17T04:35:15.582Z,100217.22
2023-09-17T04:37:43.453Z,100225.53
2023-09-17T04:40:11.436Z,100223.06
2023-09-17T04:42:41.048Z,100230.47
2023-09-17T04:45:10.885Z,100234.03
2023-09-17T04:47:44.009Z,100235.97
2023-09-17T04:50:11.824Z,100237.00
2023-09-17T04:52:39.655Z,100234.88
2023-09-17T04:55:07.675Z,100234.91
2023-09-17T04:57:35.489Z,100243.63
2023-09-17T05:00:09.400Z,100242.81
2023-09-17T05:02:42.425Z,100249.47
2023-09-17T05:05:21.704Z,100238.88
2023-09-17T05:07:56.457Z,100249.00
2023-09-17T05:10:24.243Z,100245.00
2023-09-17T05:12:56.432Z,100250.31
2023-09-17T05:15:30.406Z,100250.09
2023-09-17T05:18:03.424Z,100249.00
2023-09-17T05:20:37.361Z,100251.28
2023-09-17T05:23:12.382Z,100256.13
2023-09-17T05:25:44.481Z,100260.19
2023-09-17T05:28:12.552Z,100255.47
2023-09-17T05:30:41.124Z,100259.47
2023-09-17T05:33:13.416Z,100256.16
2023-09-17T05:35:46.043Z,100257.19
2023-09-17T05:38:14.018Z,100253.53
2023-09-17T05:40:41.482Z,100259.38
2023-09-17T05:43:09.418Z,100261.72
2023-09-17T05:45:37.079Z,100264.66
2023-09-17T05:48:06.003Z,100264.91
2023-09-17T05:50:33.766Z,100266.44
2023-09-17T05:53:13.595Z,100268.31
2023-09-17T05:55:51.442Z,100269.00
2023-09-17T05:58:19.580Z,100277.88
2023-09-17T06:00:49.829Z,100270.47
2023-09-17T06:03:20.895Z,100271.09
2023-09-17T06:05:48.758Z,100277.50
2023-09-17T06:08:30.884Z,100270.38
2023-09-17T06:10:58.422Z,100273.97
2023-09-17T06:13:30.404Z,100276.78
2023-09-17T06:15:59.799Z,100273.16
2023-09-17T06:18:27.607Z,100274.50
2023-09-17T06:20:55.262Z,100269.25
2023-09-17T06:23:23.145Z,100276.78
2023-09-17T06:25:51.951Z,100275.59
2023-09-17T06:28:19.998Z,100276.09
2023-09-17T06:30:47.584Z,100277.22
2023-09-17T06:33:15.598Z,100278.97
2023-09-17T06:35:43.081Z,100286.22
2023-09-17T06:38:10.772Z,100286.78
2023-09-17T06:40:38.337Z,100276.53
2023-09-17T06:43:07.783Z,100277.91
2023-09-17T06:45:35.228Z,100278.66
2023-09-17T06:48:08.052Z,100272.28
2023-09-17T06:50:35.569Z,100269.47
2023-09-17T06:53:03.812Z,100273.75
2023-09-17T06:55:31.318Z,100278.50
2023-09-17T06:57:59.098Z,100278.19
2023-09-17T07:00:31.906Z,100281.91
2023-09-17T07:02:59.742Z,100285.56
2023-09-17T07:05:27.224Z,100286.66
2023-09-17T07:07:55.214Z,100287.03
2023-09-17T07:10:22.778Z,100283.25
2023-09-17T07:12:52.227Z,100283.59
2023-09-17T07:15:19.789Z,100276.06
2023-09-17T07:17:48.991Z,100282.56
2023-09-17T07:20:16.381Z,100286.56
2023-09-17T07:22:45.068Z,100292.53
2023-09-17T07:25:20.503Z,100298.34
2023-09-17T07:28:14.595Z,100298.03
2023-09-17T07:30:57.597Z,100293.91
2023-09-17T07:33:35.072Z,100293.72
2023-09-17T07:36:11.698Z,100297.53
2023-09-17T07:39:10.121Z,100298.59
2023-09-17T07:41:52.739Z,100297.91
2023-09-17T07:44:42.400Z,100297.06
2023-09-17T07:47:34.893Z,100304.00
2023-09-17T07:50:36.659Z,100297.00
2023-09-17T07:53:14.638Z,100302.00
2023-09-17T07:56:21.520Z,100313.13
2023-09-17T07:58:59.142Z,100308.19
2023-09-17T08:04:36.261Z,100296.88
2023-09-17T08:07:31.746Z,100302.44
2023-09-17T08:10:17.540Z,100302.78
2023-09-17T08:13:03.501Z,100302.38
2023-09-17T08:15:37.672Z,100298.09
2023-09-17T08:20:58.694Z,100301.41
2023-09-17T08:29:48.618Z,100296.03
2023-09-17T08:32:25.770Z,100295.44
2023-09-17T08:34:58.131Z,100295.75
2023-09-17T08:37:30.765Z,100301.94
2023-09-17T08:39:58.318Z,100292.41
2023-09-17T08:42:26.612Z,100291.38
2023-09-17T08:45:01.903Z,100293.38
2023-09-17T08:47:30.028Z,100290.81
2023-09-17T08:50:02.452Z,100294.38
2023-09-17T08:52:34.785Z,100295.13
2023-09-17T08:55:06.929Z,100289.81
2023-09-17T08:57:40.924Z,100287.00
2023-09-17T09:00:22.703Z,100286.56
2023-09-17T09:02:57.363Z,100286.47
2023-09-17T09:05:31.560Z,100291.75
2023-09-17T09:08:00.072Z,100291.16
2023-09-17T09:10:27.625Z,100293.22
2023-09-17T09:12:56.645Z,100290.81
2023-09-17T09:15:33.148Z,100288.66
2023-09-17T09:18:06.398Z,100291.44
2023-09-17T09:20:36.711Z,100284.03
2023-09-17T09:23:05.299Z,100286.97
2023-09-17T09:25:33.104Z,100277.34
2023-09-17T09:28:01.175Z,100284.25
2023-09-17T09:30:41.441Z,100288.63
2023-09-17T09:33:09.687Z,100285.13
2023-09-17T09:35:42.405Z,100282.88
2023-09-17T09:38:12.277Z,100283.41
2023-09-17T09:40:40.248Z,100282.47
2023-09-17T09:43:31.595Z,100274.72
2023-09-17T09:46:21.412Z,100270.09
2023-09-17T09:49:00.458Z,100270.16
2023-09-17T09:51:33.328Z,100273.81
2023-09-17T09:54:07.302Z,100270.94
2023-09-17T09:56:35.118Z,100273.75
2023-09-17T09:59:03.155Z,100264.09
2023-09-17T10:01:39.363Z,100271.22
2023-09-17T10:04:17.438Z,100268.94
2023-09-17T10:06:47.216Z,100269.75
2023-09-17T10:09:17.325Z,100265.91
2023-09-17T10:11:44.887Z,100270.72
2023-09-17T10:14:17.424Z,100263.00
2023-09-17T10:16:56.977Z,100269.06
2023-09-17T10:19:26.654Z,100259.72
2023-09-17T10:21:54.886Z,100255.31
2023-09-17T10:24:24.457Z,100256.28
2023-09-17T10:26:57.111Z,100256.88
2023-09-17T10:29:29.679Z,100251.41
2023-09-17T10:31:59.834Z,100255.03
2023-09-17T10:34:29.299Z,100251.38
2023-09-17T10:37:01.460Z,100245.53
2023-09-17T10:39:42.501Z,100257.56
2023-09-17T10:42:15.508Z,100259.88
2023-09-17T10:44:50.536Z,100261.31
2023-09-17T10:47:26.469Z,100249.78
2023-09-17T10:49:56.182Z,100249.63
2023-09-17T10:52:24.110Z,100248.75
2023-09-17T10:54:56.215Z,100250.38
2023-09-17T10:57:43.408Z,100250.63
2023-09-17T11:00:18.654Z,100253.88
2023-09-17T11:02:55.849Z,100255.41
2023-09-17T11:05:33.442Z,100259.47
2023-09-17T11:08:04.747Z,100254.25
2023-09-17T11:10:42.530Z,100253.00
2023-09-17T11:16:07.373Z,100250.47
2023-09-17T11:19:26.510Z,100243.81
2023-09-17T11:25:07.435Z,100246.09
2023-09-17T11:28:02.414Z,100242.59
2023-09-17T11:34:01.458Z,100247.78
2023-09-17T11:42:57.922Z,100242.59
2023-09-17T11:48:16.534Z,100238.41
2023-09-17T13:00:54.634Z,100233.63
2023-09-17T15:05:29.418Z,100185.28
2023-09-17T15:08:02.549Z,100189.16
2023-09-17T15:10:35.391Z,100185.47
2023-09-17T15:13:17.314Z,100192.88
2023-09-17T15:15:49.759Z,100186.78
2023-09-17T15:18:18.325Z,100184.56
2023-09-17T15:20:59.123Z,100184.22
2023-09-17T15:23:31.533Z,100189.47
2023-09-17T15:26:00.527Z,100188.69
2023-09-17T15:28:28.790Z,100182.50
2023-09-17T15:31:01.397Z,100191.94
2023-09-17T15:33:29.862Z,100185.53
2023-09-17T15:36:09.319Z,100178.56
2023-09-17T15:38:51.638Z,100180.50
2023-09-17T15:41:28.172Z,100184.88
2023-09-17T15:44:13.010Z,100189.66
2023-09-17T15:46:50.581Z,100183.84
2023-09-17T15:49:32.563Z,100192.03
2023-09-17T15:52:10.082Z,100192.41
2023-09-17T15:55:01.984Z,100190.03
2023-09-17T15:57:35.569Z,100194.16
2023-09-17T16:00:03.899Z,100190.69
2023-09-17T16:02:39.710Z,100196.03
2023-09-17T16:05:07.931Z,100187.06
2023-09-17T16:07:40.555Z,100189.41
2023-09-17T16:10:09.520Z,100184.41
2023-09-17T16:12:37.569Z,100188.31
2023-09-17T16:15:05.700Z,100188.31
2023-09-17T16:17:34.001Z,100192.56
2023-09-17T16:20:01.789Z,100187.41
2023-09-17T16:22:30.193Z,100188.88
2023-09-17T16:24:59.492Z,100182.03
2023-09-17T16:27:36.454Z,100194.28
2023-09-17T16:30:09.450Z,100190.47
2023-09-17T16:32:56.642Z,100182.53
2023-09-17T16:35:41.917Z,100179.56
2023-09-17T16:38:29.548Z,100190.19
2023-09-17T16:41:29.758Z,100194.06
2023-09-17T16:44:36.481Z,100190.31
2023-09-17T16:47:15.748Z,100187.06
2023-09-17T16:49:51.167Z,100194.59
2023-09-17T16:52:32.600Z,100182.47
2023-09-17T16:55:05.144Z,100186.03
2023-09-17T16:57:46.810Z,100195.19
2023-09-17T17:00:24.040Z,100188.84
2023-09-17T17:03:17.522Z,100192.41
2023-09-17T17:22:57.590Z,100199.59
2023-09-17T17:32:15.572Z,100200.34
2023-09-17T17:38:07.685Z,100209.22
2023-09-17T17:41:09.639Z,100216.09
2023-09-17T17:44:02.635Z,100221.31
2023-09-17T17:52:24.530Z,100220.03
2023-09-17T17:55:08.720Z,100225.88
2023-09-17T17:57:57.492Z,100229.34
2023-09-17T18:00:32.535Z,100223.25
2023-09-17T18:03:26.553Z,100229.53
2023-09-17T18:06:10.511Z,100238.81
2023-09-17T18:09:03.469Z,100243.28
2023-09-17T18:11:43.540Z,100244.16
2023-09-17T18:14:25.815Z,100250.91
2023-09-17T18:17:00.711Z,100250.56
2023-09-17T18:19:33.572Z,100245.69
2023-09-17T18:22:07.378Z,100252.81
2023-09-17T18:24:49.528Z,100245.81
2023-09-17T18:27:28.424Z,100250.09
2023-09-17T18:32:55.120Z,100243.66
2023-09-17T18:35:34.556Z,100233.81
2023-09-17T18:38:06.990Z,100240.13
2023-09-17T18:40:37.473Z,100238.94
2023-09-17T18:43:18.393Z,100241.50
2023-09-17T18:46:11.460Z,100245.56
2023-09-17T18:48:43.574Z,100240.34
2023-09-17T18:51:12.835Z,100235.81
2023-09-17T18:53:47.049Z,100239.97
2023-09-17T18:56:19.615Z,100242.72
2023-09-17T18:58:56.530Z,100245.81
2023-09-17T19:01:43.647Z,100241.50
2023-09-17T19:04:19.480Z,100248.28
2023-09-17T19:06:52.689Z,100240.94
2023-09-17T19:09:26.572Z,100244.72
2023-09-17T19:12:00.495Z,100237.47
2023-09-17T19:14:52.618Z,100240.06
2023-09-17T19:17:38.579Z,100237.06
2023-09-17T19:20:08.841Z,100230.66
2023-09-17T19:22:47.550Z,100235.97
2023-09-17T19:25:26.475Z,100234.44
2023-09-17T19:28:10.565Z,100237.63
2023-09-17T19:30:44.810Z,100227.03
2023-09-17T19:33:32.544Z,100230.75
2023-09-17T19:36:01.976Z,100231.94
2023-09-17T19:38:44.515Z,100232.44
2023-09-17T19:41:21.527Z,100222.88
2023-09-17T19:43:54.583Z,100225.84
2023-09-17T19:46:35.644Z,100223.66
2023-09-17T19:55:52.220Z,100214.81
2023-09-17T19:58:29.650Z,100211.75
2023-09-17T20:01:21.597Z,100209.38
2023-09-17T20:04:03.805Z,100204.75
2023-09-17T20:06:56.046Z,100203.63
2023-09-17T20:09:36.144Z,100194.53
2023-09-17T20:12:13.616Z,100191.09
2023-09-17T20:14:42.099Z,100195.31
2023-09-17T20:17:14.453Z,100191.56
2023-09-17T20:19:51.838Z,100185.72
2023-09-17T20:22:35.434Z,100189.81
2023-09-17T20:25:03.073Z,100185.31
2023-09-17T20:27:40.420Z,100184.66
2023-09-17T20:30:17.569Z,100179.81
2023-09-17T20:32:52.757Z,100181.88
2023-09-17T20:35:20.462Z,100188.06
2023-09-17T20:38:12.454Z,100184.63
2023-09-17T20:40:44.772Z,100188.06
2023-09-17T20:43:31.474Z,100187.81
2023-09-17T20:45:59.458Z,100189.38
2023-09-17T20:48:31.564Z,100176.97
2023-09-17T20:51:09.461Z,100184.63
2023-09-17T20:53:50.700Z,100188.38
2023-09-17T20:56:19.790Z,100184.63
2023-09-17T20:58:57.378Z,100190.53
2023-09-17T21:01:29.449Z,100177.78
2023-09-17T21:03:57.620Z,100175.56
2023-09-17T21:06:25.478Z,100182.50
2023-09-17T21:08:54.983Z,100175.56
2023-09-17T21:11:24.174Z,100174.84
2023-09-17T21:14:02.440Z,100178.72
2023-09-17T21:16:36.406Z,100174.09
2023-09-17T21:19:18.517Z,100176.03
2023-09-17T21:21:50.967Z,100180.19
2023-09-17T21:24:25.791Z,100176.63
2023-09-17T21:26:53.751Z,100170.09
2023-09-17T21:29:30.495Z,100183.31
2023-09-17T21:32:11.472Z,100175.41
2023-09-17T21:34:43.732Z,100176.84
2023-09-17T21:37:15.393Z,100171.78
2023-09-17T21:39:49.638Z,100174.81
2023-09-17T21:42:17.122Z,100167.66
2023-09-17T21:44:44.987Z,100161.66
2023-09-17T21:47:12.410Z,100163.09
2023-09-17T21:49:40.514Z,100161.03
2023-09-17T21:52:07.885Z,100166.25
2023-09-17T21:54:35.766Z,100166.97
2023-09-17T21:57:18.036Z,100162.78
2023-09-17T21:59:48.721Z,100156.91
2023-09-17T22:02:16.678Z,100160.91
2023-09-17T22:04:44.677Z,100158.63
2023-09-17T22:07:12.133Z,100164.91
2023-09-17T22:09:40.622Z,100158.59
2023-09-17T22:12:09.776Z,100160.94
2023-09-17T22:14:38.118Z,100157.91
2023-09-17T22:17:05.780Z,100152.47
2023-09-17T22:19:33.560Z,100145.38
2023-09-17T22:22:01.084Z,100148.53
2023-09-17T22:24:28.909Z,100151.88
2023-09-17T22:26:56.370Z,100139.94
2023-09-17T22:29:28.967Z,100141.53
2023-09-17T22:31:56.981Z,100146.66
2023-09-17T22:34:24.529Z,100144.31
2023-09-17T22:36:52.382Z,100136.84
2023-09-17T22:39:19.897Z,100140.59
2023-09-17T22:41:47.583Z,100139.53
2023-09-17T22:44:23.359Z,100146.03
2023-09-17T22:47:00.289Z,100138.91
2023-09-17T22:49:27.812Z,100138.72
2023-09-17T22:51:55.924Z,100137.41
2023-09-17T22:54:23.475Z,100137.50
2023-09-17T22:56:51.192Z,100136.47
2023-09-17T22:59:18.630Z,100137.16
2023-09-17T23:01:46.549Z,100144.84
2023-09-17T23:04:15.208Z,100137.53
2023-09-17T23:06:43.103Z,100138.16
2023-09-17T23:09:10.581Z,100132.72
2023-09-17T23:11:38.266Z,100140.25
2023-09-17T23:14:05.679Z,100136.91
2023-09-17T23:16:33.567Z,100146.31
2023-09-17T23:19:00.895Z,100147.16
2023-09-17T23:21:30.015Z,100140.69
2023-09-17T23:23:57.546Z,100145.28
2023-09-17T23:26:25.453Z,100146.97
2023-09-17T23:28:53.099Z,100137.94
2023-09-17T23:31:21.026Z,100134.63
2023-09-17T23:33:48.414Z,100140.06
2023-09-17T23:36:16.057Z,100129.84
2023-09-17T23:38:44.847Z,100130.88
2023-09-17T23:41:12.843Z,100134.03
2023-09-17T23:43:40.375Z,100135.09
2023-09-17T23:46:08.218Z,100133.84
2023-09-17T23:48:35.578Z,100144.47
2023-09-17T23:51:03.386Z,100140.09
2023-09-17T23:53:34.179Z,100139.03
2023-09-17T23:56:03.732Z,100133.22
2023-09-17T23:58:31.266Z,100141.34
